Terminal Aerodrome Forecast
Issued by NWS

Home | Current Version | Previous Version | Text Only | Print | Product List | Glossary On
Versions: 1 2 3 4 5 6 7 8 9 10 11 12
000
FTUS42 TJSJ 291700
TAFKPK
TAF
TKPK 291739Z 2918/3018 08008KT P6SM FEW024
     FM292100 05008KT P6SM FEW020
     FM301400 06008KT P6SM SCT022
      AMD NOT SKED 3002/3011=

USA.gov is the U.S. government's official web portal to all federal, state and local government web resources and services.